Time;durP1;ratioP1;P1;durP2;ratioP2;P2;SDS_P1;SDS_P2;PMS_P1;PMS_P2;Temp;Humidity;BMP_temperature;BMP_pressure;BME280_temperature;BME280_humidity;BME280_pressure;Samples;Min_cycle;Max_cycle;Signal;HPM_P1;HPM_P2
2023/06/01 00:00:20;;;;;;;8.35;7.55;;;;;;;14.08;100.00;63450.41;5129406;28;20398;-79
2023/06/01 00:02:49;;;;;;;8.07;7.28;;;;;;;14.11;100.00;63453.03;5130055;28;20222;-80
2023/06/01 00:05:16;;;;;;;8.93;8.02;;;;;;;14.12;100.00;63456.59;5123658;28;20203;-78
2023/06/01 00:07:45;;;;;;;9.32;8.32;;;;;;;14.13;100.00;63455.09;5130018;28;20378;-78
2023/06/01 00:10:14;;;;;;;9.98;8.27;;;;;;;14.13;100.00;63463.31;5110874;28;20219;-79
2023/06/01 00:12:43;;;;;;;8.15;7.38;;;;;;;14.13;100.00;63458.19;5126286;28;20222;-79
2023/06/01 00:15:10;;;;;;;10.13;7.88;;;;;;;14.04;100.00;63448.84;5131534;27;20227;-81
2023/06/01 00:17:37;;;;;;;9.23;8.43;;;;;;;14.03;100.00;63445.22;5126513;28;20259;-79
2023/06/01 00:20:07;;;;;;;10.98;8.48;;;;;;;13.97;100.00;63446.16;5129774;27;20208;-80
2023/06/01 00:22:38;;;;;;;8.80;7.85;;;;;;;13.94;100.00;63441.03;5128734;28;20222;-78
2023/06/01 00:25:08;;;;;;;8.90;8.02;;;;;;;13.93;100.00;63435.38;5112947;28;20199;-78
2023/06/01 00:27:35;;;;;;;8.65;7.90;;;;;;;13.96;100.00;63442.56;5109974;28;20265;-78
2023/06/01 00:30:02;;;;;;;9.57;8.38;;;;;;;13.93;100.00;63434.34;5119613;28;20210;-78
2023/06/01 00:32:30;;;;;;;9.80;8.85;;;;;;;13.84;100.00;63431.16;5123313;28;20220;-79
2023/06/01 00:34:56;;;;;;;8.68;7.90;;;;;;;13.85;100.00;63429.13;5111569;28;20231;-79
2023/06/01 00:37:23;;;;;;;9.32;8.40;;;;;;;13.82;100.00;63428.56;5109689;28;20537;-79
2023/06/01 00:39:50;;;;;;;9.65;8.63;;;;;;;13.74;100.00;63412.56;5126198;28;20218;-78
2023/06/01 00:42:19;;;;;;;9.10;8.27;;;;;;;13.69;100.00;63415.06;5116656;28;20259;-79
2023/06/01 00:44:46;;;;;;;12.15;8.52;;;;;;;13.77;100.00;63420.81;5114795;28;20253;-79
2023/06/01 00:47:13;;;;;;;9.20;8.40;;;;;;;13.76;100.00;63422.84;5128614;28;20231;-78
2023/06/01 00:49:40;;;;;;;11.45;8.40;;;;;;;13.61;100.00;63404.19;5130874;28;20195;-78
2023/06/01 00:52:08;;;;;;;12.95;8.93;;;;;;;13.68;100.00;63411.47;5131815;28;20215;-79
2023/06/01 00:54:35;;;;;;;10.02;8.30;;;;;;;13.65;100.00;63408.38;5126422;28;20229;-80
2023/06/01 00:57:03;;;;;;;12.57;8.07;;;;;;;13.55;100.00;63397.97;5117656;28;20220;-81
2023/06/01 00:59:32;;;;;;;9.85;8.55;;;;;;;13.47;100.00;63390.19;5114000;28;20196;-77
2023/06/01 01:01:58;;;;;;;9.43;8.48;;;;;;;13.33;100.00;63373.09;5116759;28;20245;-79
2023/06/01 01:04:26;;;;;;;8.60;7.90;;;;;;;13.53;100.00;63398.97;5112620;28;20241;-78
2023/06/01 01:07:03;;;;;;;9.13;8.32;;;;;;;13.50;100.00;63395.34;5116679;28;20290;-79
2023/06/01 01:09:36;;;;;;;9.85;7.75;;;;;;;13.46;100.00;63391.19;5112150;28;20259;-78
2023/06/01 01:12:19;;;;;;;8.80;7.75;;;;;;;13.45;100.00;63392.72;5108288;28;20231;-78
2023/06/01 01:14:56;;;;;;;9.32;8.43;;;;;;;13.41;100.00;63381.41;5116020;28;20278;-78
2023/06/01 01:17:32;;;;;;;9.45;8.45;;;;;;;13.40;100.00;63382.94;5131771;28;20219;-80
2023/06/01 01:20:08;;;;;;;10.27;9.18;;;;;;;13.38;100.00;63380.84;5111034;28;20341;-78
2023/06/01 01:22:59;;;;;;;9.57;8.68;;;;;;;13.33;100.00;63378.22;5113012;28;20228;-80
2023/06/01 01:25:48;;;;;;;9.48;8.57;;;;;;;13.30;100.00;63369.47;5112262;28;20210;-79
2023/06/01 01:28:41;;;;;;;11.15;8.25;;;;;;;13.28;100.00;63370.47;5127985;28;20208;-79
2023/06/01 01:31:12;;;;;;;9.30;8.40;;;;;;;13.22;100.00;63364.25;5106681;28;20222;-80
2023/06/01 01:33:41;;;;;;;9.43;8.30;;;;;;;13.14;100.00;63358.50;5124749;28;20229;-79
2023/06/01 01:36:10;;;;;;;13.93;9.20;;;;;;;13.16;100.00;63352.91;5128653;28;20203;-80
2023/06/01 01:38:37;;;;;;;13.85;8.98;;;;;;;13.22;100.00;63366.81;5129971;28;20206;-78
2023/06/01 01:41:05;;;;;;;10.55;9.50;;;;;;;13.24;100.00;63363.75;5113535;28;20367;-79
2023/06/01 01:43:33;;;;;;;12.00;10.70;;;;;;;13.32;100.00;63374.63;5131048;28;20199;-79
2023/06/01 01:46:14;;;;;;;18.77;12.95;;;;;;;13.41;100.00;63388.56;5126876;27;20195;-78
2023/06/01 01:48:52;;;;;;;17.30;13.27;;;;;;;13.52;100.00;63397.94;5116655;28;20214;-80
2023/06/01 01:51:23;;;;;;;23.40;16.08;;;;;;;13.61;100.00;63411.88;5119476;28;20219;-78
2023/06/01 01:53:53;;;;;;;24.95;15.75;;;;;;;13.65;100.00;63411.44;5112590;28;20251;-80
2023/06/01 01:56:20;;;;;;;19.17;14.13;;;;;;;13.59;100.00;63405.22;5122525;28;20265;-81
2023/06/01 01:58:49;;;;;;;13.48;10.50;;;;;;;13.51;100.00;63391.28;5132808;28;20218;-80
2023/06/01 02:01:19;;;;;;;11.02;9.80;;;;;;;13.49;100.00;63392.28;5130449;28;20276;-80
2023/06/01 02:03:46;;;;;;;11.85;9.73;;;;;;;13.31;100.00;63375.63;5116489;28;20188;-80
2023/06/01 02:06:13;;;;;;;10.15;9.18;;;;;;;13.41;100.00;63383.44;5112391;28;20218;-80
2023/06/01 02:08:41;;;;;;;8.60;7.72;;;;;;;13.37;100.00;63379.31;5115178;28;20203;-82
2023/06/01 02:11:08;;;;;;;10.15;7.45;;;;;;;13.31;100.00;63368.47;5124893;28;20515;-83
2023/06/01 02:13:35;;;;;;;8.63;7.40;;;;;;;13.21;100.00;63365.78;5110463;28;20405;-81
2023/06/01 02:16:02;;;;;;;9.05;8.07;;;;;;;13.16;100.00;63358.03;5111439;28;20194;-79
2023/06/01 02:18:31;;;;;;;10.68;8.95;;;;;;;13.12;100.00;63356.44;5115343;28;20401;-81
2023/06/01 02:20:59;;;;;;;8.65;7.72;;;;;;;13.08;100.00;63354.31;5116424;28;20200;-79
2023/06/01 02:23:25;;;;;;;9.38;8.27;;;;;;;12.98;100.00;63339.34;5121717;28;20229;-79
2023/06/01 02:25:52;;;;;;;10.30;8.23;;;;;;;12.96;100.00;63336.75;5116879;28;20206;-80
2023/06/01 02:28:19;;;;;;;9.23;8.18;;;;;;;13.01;100.00;63342.44;5108676;28;20450;-80
2023/06/01 02:30:46;;;;;;;14.52;9.60;;;;;;;12.98;100.00;63338.81;5124050;28;20195;-79
2023/06/01 02:33:14;;;;;;;11.48;8.10;;;;;;;12.99;100.00;63339.84;5130461;28;20233;-79
2023/06/01 02:35:42;;;;;;;8.60;7.72;;;;;;;12.90;100.00;63328.47;5127265;28;20234;-79
2023/06/01 02:38:10;;;;;;;8.98;7.78;;;;;;;12.89;100.00;63332.03;5119607;28;20222;-79
2023/06/01 02:40:37;;;;;;;8.80;8.00;;;;;;;12.91;100.00;63334.63;5132242;28;20197;-78
2023/06/01 02:43:04;;;;;;;11.65;7.75;;;;;;;12.87;100.00;63324.84;5132255;28;20315;-79
2023/06/01 02:45:31;;;;;;;9.73;7.80;;;;;;;12.92;100.00;63333.13;5115625;28;20224;-79
2023/06/01 02:47:58;;;;;;;9.95;8.73;;;;;;;12.90;100.00;63327.97;5122082;28;20211;-79
2023/06/01 02:50:26;;;;;;;12.82;8.65;;;;;;;12.92;100.00;63330.03;5122818;28;20196;-78
2023/06/01 02:52:54;;;;;;;11.00;8.80;;;;;;;12.91;100.00;63331.56;5111847;28;20540;-80
2023/06/01 02:55:22;;;;;;;9.32;8.43;;;;;;;12.91;100.00;63329.00;5124381;28;20227;-78
2023/06/01 02:57:49;;;;;;;11.50;8.88;;;;;;;12.91;100.00;63331.56;5127135;28;20558;-79
2023/06/01 03:00:17;;;;;;;9.63;8.68;;;;;;;12.94;100.00;63334.66;5127397;28;20202;-78
2023/06/01 03:02:44;;;;;;;9.25;8.35;;;;;;;12.98;100.00;63336.78;5117084;28;20410;-78
2023/06/01 03:05:14;;;;;;;10.38;9.25;;;;;;;12.98;100.00;63339.34;5116963;28;20195;-80
2023/06/01 03:07:41;;;;;;;10.38;9.05;;;;;;;12.98;100.00;63339.34;5123272;28;20275;-80
2023/06/01 03:10:12;;;;;;;10.30;8.82;;;;;;;13.01;100.00;63347.56;5128210;28;20225;-81
2023/06/01 03:12:39;;;;;;;10.25;9.25;;;;;;;13.03;100.00;63344.03;5122480;28;20212;-79
2023/06/01 03:15:07;;;;;;;14.07;9.52;;;;;;;13.06;100.00;63347.66;5112052;28;20540;-79
2023/06/01 03:17:34;;;;;;;12.18;9.10;;;;;;;13.15;100.00;63359.53;5110773;28;20288;-79
2023/06/01 03:20:14;;;;;;;9.52;8.38;;;;;;;13.09;100.00;63348.22;5123125;28;20211;-78
2023/06/01 03:22:42;;;;;;;9.65;8.70;;;;;;;13.14;100.00;63355.94;5112442;28;20245;-79
2023/06/01 03:25:11;;;;;;;11.18;10.02;;;;;;;13.20;100.00;63364.22;5128289;28;20205;-78
2023/06/01 03:27:38;;;;;;;10.05;8.43;;;;;;;13.29;100.00;63368.94;5129179;28;20218;-77
2023/06/01 03:30:09;;;;;;;10.18;8.45;;;;;;;13.29;100.00;63371.50;5129621;28;20187;-79
2023/06/01 03:32:37;;;;;;;9.18;8.30;;;;;;;13.54;100.00;63391.81;5128688;28;20223;-79
2023/06/01 03:35:04;;;;;;;10.77;8.55;;;;;;;13.64;100.00;63410.41;5121941;28;20284;-79
2023/06/01 03:37:31;;;;;;;12.65;9.55;;;;;;;13.67;100.00;63410.94;5131081;28;20403;-80
2023/06/01 03:39:59;;;;;;;8.55;7.72;;;;;;;13.84;100.00;63428.06;5128892;28;20213;-78
2023/06/01 03:42:27;;;;;;;9.82;8.50;;;;;;;13.94;100.00;63436.41;5113742;28;20238;-77
2023/06/01 03:44:54;;;;;;;9.98;8.98;;;;;;;13.99;100.00;63441.09;5112661;28;20242;-78
2023/06/01 03:47:21;;;;;;;10.48;7.88;;;;;;;14.18;100.00;63468.50;5111941;28;20402;-79
2023/06/01 03:49:48;;;;;;;8.75;7.88;;;;;;;14.23;100.00;63468.56;5122803;28;20196;-79
2023/06/01 03:52:18;;;;;;;8.05;7.35;;;;;;;14.42;100.00;63485.22;5123079;28;20286;-80
2023/06/01 03:54:45;;;;;;;9.63;8.77;;;;;;;14.54;100.00;63500.25;5116611;28;20291;-78
2023/06/01 03:57:11;;;;;;;8.88;7.97;;;;;;;14.66;100.00;63518.38;5109301;28;20239;-81
2023/06/01 03:59:40;;;;;;;9.60;8.52;;;;;;;14.74;100.00;63526.69;5116079;28;20227;-79
2023/06/01 04:02:09;;;;;;;11.52;9.05;;;;;;;14.62;100.00;63511.66;5129579;28;20223;-79
2023/06/01 04:04:36;;;;;;;10.43;9.35;;;;;;;14.49;100.00;63495.59;5120448;28;20542;-79
2023/06/01 04:07:05;;;;;;;16.52;10.35;;;;;;;14.45;100.00;63490.91;5122967;28;20438;-79
2023/06/01 04:09:31;;;;;;;10.52;9.50;;;;;;;14.40;100.00;63483.16;5120522;28;20202;-79
2023/06/01 04:11:58;;;;;;;10.88;8.45;;;;;;;14.40;100.00;63485.72;5129949;28;20215;-77
2023/06/01 04:14:25;;;;;;;12.77;9.45;;;;;;;14.48;100.00;63491.97;5127412;28;20222;-81
2023/06/01 04:16:54;;;;;;;13.90;10.20;;;;;;;14.61;100.00;63510.09;5110753;28;20234;-78
2023/06/01 04:19:21;;;;;;;11.10;9.90;;;;;;;14.73;100.00;63525.66;5111054;28;20237;-78
2023/06/01 04:21:49;;;;;;;9.38;8.57;;;;;;;14.78;100.00;63525.19;5129623;28;20211;-79
2023/06/01 04:24:16;;;;;;;13.35;10.02;;;;;;;14.88;100.00;63538.66;5127927;28;20188;-79
2023/06/01 04:26:44;;;;;;;12.77;10.00;;;;;;;14.88;100.00;63536.09;5123248;28;20238;-79
2023/06/01 04:29:11;;;;;;;11.93;10.52;;;;;;;14.92;100.00;63539.72;5116607;28;20198;-79
2023/06/01 04:31:39;;;;;;;12.10;9.02;;;;;;;14.86;100.00;63531.44;5109289;28;20500;-78
2023/06/01 04:34:07;;;;;;;12.18;8.95;;;;;;;14.95;100.00;63545.94;5124057;28;20199;-79
2023/06/01 04:36:38;;;;;;;13.80;10.77;;;;;;;15.07;100.00;63560.97;5116943;28;20253;-77
2023/06/01 04:39:06;;;;;;;11.00;9.73;;;;;;;14.88;100.00;63535.56;5125695;28;20476;-78
2023/06/01 04:41:34;;;;;;;19.45;11.30;;;;;;;14.79;100.00;63529.31;5123940;28;20253;-77
2023/06/01 04:44:05;;;;;;;14.07;11.90;;;;;;;14.84;100.00;63531.94;5113185;28;20202;-77
2023/06/01 04:46:33;;;;;;;18.00;11.93;;;;;;;14.84;100.00;63531.94;5125823;28;20572;-77
2023/06/01 04:49:00;;;;;;;16.88;11.48;;;;;;;14.93;100.00;63548.47;5130043;27;20213;-78
2023/06/01 04:51:30;;;;;;;14.25;10.68;;;;;;;15.19;100.00;63565.22;5120481;28;20246;-79
2023/06/01 04:53:58;;;;;;;13.75;11.05;;;;;;;15.33;100.00;63581.81;5124127;28;20270;-79
2023/06/01 04:56:27;;;;;;;12.95;11.02;;;;;;;15.56;100.00;63606.28;5120773;28;20261;-79
2023/06/01 04:58:55;;;;;;;11.73;10.60;;;;;;;15.57;100.00;63612.44;5113215;28;20266;-78
2023/06/01 05:01:24;;;;;;;20.30;11.27;;;;;;;15.57;100.00;63612.44;5118793;28;20247;-79
2023/06/01 05:03:55;;;;;;;15.73;9.60;;;;;;;15.55;100.00;63607.28;5109290;28;20191;-78
2023/06/01 05:06:22;;;;;;;10.93;9.77;;;;;;;15.59;100.00;63611.94;5113242;28;20211;-78
2023/06/01 05:08:50;;;;;;;12.70;9.15;;;;;;;15.60;100.00;63607.84;5108062;28;20195;-78
2023/06/01 05:11:17;;;;;;;12.93;9.18;;;;;;;15.54;100.00;63608.78;5107580;28;20231;-77
2023/06/01 05:13:44;;;;;;;10.82;8.80;;;;;;;15.59;100.00;63608.84;5110588;28;20215;-78
2023/06/01 05:16:11;;;;;;;12.05;8.98;;;;;;;15.71;100.00;63621.34;5108985;28;20257;-77
2023/06/01 05:18:40;;;;;;;8.80;7.45;;;;;;;15.70;100.00;63617.72;5107683;28;20263;-78
2023/06/01 05:21:07;;;;;;;10.63;7.07;;;;;;;15.62;100.00;63609.94;5106576;28;20192;-77
2023/06/01 05:23:34;;;;;;;8.63;6.38;;;;;;;15.58;100.00;63605.75;5110488;28;20199;-77
2023/06/01 05:26:03;;;;;;;8.90;6.65;;;;;;;15.67;100.00;63617.69;5127733;28;20248;-79
2023/06/01 05:28:31;;;;;;;8.75;6.45;;;;;;;15.72;100.00;63622.88;5128126;28;20202;-77
2023/06/01 05:30:58;;;;;;;6.57;5.97;;;;;;;16.02;100.00;63656.13;5129193;28;20201;-78
2023/06/01 05:33:26;;;;;;;7.18;6.45;;;;;;;16.26;100.00;63678.53;5129416;28;20254;-79
2023/06/01 05:35:53;;;;;;;6.90;6.30;;;;;;;16.49;100.00;63699.91;5123116;28;20219;-82
2023/06/01 05:38:21;;;;;;;7.50;6.00;;;;;;;16.38;100.00;63693.59;5107210;28;20191;-77
2023/06/01 05:40:48;;;;;;;6.88;6.28;;;;;;;16.42;100.00;63694.66;5108472;28;20263;-80
2023/06/01 05:43:16;;;;;;;7.22;5.43;;;;;;;16.61;100.00;63714.44;5106935;28;20216;-79
2023/06/01 05:45:43;;;;;;;6.55;5.45;;;;;;;16.77;100.00;63733.66;5107493;28;20196;-79
2023/06/01 05:48:13;;;;;;;9.90;6.47;;;;;;;16.83;100.00;63740.44;5111418;28;20215;-79
2023/06/01 05:50:41;;;;;;;6.43;5.32;;;;;;;17.07;100.00;63762.84;5109646;28;20200;-79
2023/06/01 05:53:08;;;;;;;5.97;5.53;;;;;;;17.00;100.00;63752.97;5107872;28;20223;-79
2023/06/01 05:55:35;;;;;;;5.97;5.47;;;;;;;17.12;100.00;63770.59;5107031;28;20227;-78
2023/06/01 05:58:02;;;;;;;6.40;5.80;;;;;;;17.43;100.00;63794.13;5121164;28;20228;-78
2023/06/01 06:00:31;;;;;;;7.72;6.78;;;;;;;17.46;100.00;63805.50;5111826;28;20266;-78
2023/06/01 06:02:58;;;;;;;6.97;6.38;;;;;;;17.33;100.00;63791.94;5107557;28;20211;-78
2023/06/01 06:05:25;;;;;;;8.80;6.20;;;;;;;17.17;100.00;63773.25;5109157;28;20254;-80
2023/06/01 06:07:51;;;;;;;8.93;6.20;;;;;;;17.17;100.00;63773.25;5110065;28;20227;-79
2023/06/01 06:10:18;;;;;;;6.80;6.07;;;;;;;17.09;100.00;63762.34;5107774;28;20406;-80
2023/06/01 06:12:46;;;;;;;6.82;6.13;;;;;;;17.08;100.00;63766.44;5106490;28;20278;-79
2023/06/01 06:15:13;;;;;;;7.25;6.22;;;;;;;17.25;100.00;63775.91;5107463;28;20592;-79
2023/06/01 06:17:41;;;;;;;9.60;6.47;;;;;;;17.28;100.00;63782.13;5105956;28;20475;-79
2023/06/01 06:20:10;;;;;;;8.63;5.70;;;;;;;17.27;100.00;63781.06;5106614;28;20372;-79
2023/06/01 06:22:38;;;;;;;9.07;7.78;;;;;;;17.44;100.00;63800.84;5106115;28;20223;-78
2023/06/01 06:25:06;;;;;;;11.85;8.98;;;;;;;17.62;100.00;63822.16;5106192;28;20209;-78
2023/06/01 06:27:32;;;;;;;12.68;10.13;;;;;;;17.75;100.00;63838.28;5110528;28;20236;-79
2023/06/01 06:30:00;;;;;;;15.45;11.98;;;;;;;17.95;100.00;63853.97;5122215;28;20195;-79
2023/06/01 06:32:27;;;;;;;15.55;11.13;;;;;;;18.13;100.00;63872.72;5112907;28;20218;-78
2023/06/01 06:34:55;;;;;;;21.65;10.85;;;;;;;18.13;100.00;63872.72;5118548;28;20548;-78
2023/06/01 06:37:22;;;;;;;12.38;10.52;;;;;;;18.05;100.00;63866.44;5106440;28;20211;-77
2023/06/01 06:39:49;;;;;;;16.90;11.00;;;;;;;18.27;100.00;63881.63;5106790;28;20191;-79
2023/06/01 06:42:16;;;;;;;17.73;10.93;;;;;;;18.34;100.00;63894.56;5107305;28;20283;-78
2023/06/01 06:44:43;;;;;;;16.30;10.82;;;;;;;17.98;100.00;63859.16;5105506;28;20199;-76
2023/06/01 06:47:14;;;;;;;15.68;11.43;;;;;;;17.78;100.00;63838.31;5108275;28;20215;-79
2023/06/01 06:49:42;;;;;;;14.57;10.80;;;;;;;17.94;100.00;63849.81;5105813;28;20225;-79
2023/06/01 06:52:11;;;;;;;18.77;11.77;;;;;;;18.07;100.00;63865.94;5108288;28;20207;-79
2023/06/01 06:54:40;;;;;;;14.98;12.00;;;;;;;18.14;100.00;63875.81;5112684;28;20203;-80
2023/06/01 06:57:08;;;;;;;14.70;11.32;;;;;;;18.17;100.00;63882.03;5112306;28;20252;-79
2023/06/01 06:59:35;;;;;;;14.23;11.15;;;;;;;18.15;100.00;63871.69;5113171;28;20209;-79
2023/06/01 07:02:03;;;;;;;12.48;10.18;;;;;;;18.39;100.00;63901.84;5131305;28;20214;-79
2023/06/01 07:04:30;;;;;;;15.73;10.48;;;;;;;18.67;100.00;63930.53;5133955;28;20195;-79
2023/06/01 07:07:00;;;;;;;16.73;11.13;;;;;;;18.88;100.00;63952.94;5131990;28;20222;-78
2023/06/01 07:09:31;;;;;;;14.93;11.63;;;;;;;18.89;100.00;63945.72;5132831;28;20199;-79
2023/06/01 07:12:01;;;;;;;23.10;11.63;;;;;;;18.79;100.00;63940.47;5131337;28;20211;-78
2023/06/01 07:14:28;;;;;;;15.55;12.27;;;;;;;18.91;100.00;63956.09;5132201;28;20190;-79
2023/06/01 07:16:55;;;;;;;25.75;11.55;;;;;;;19.17;100.00;63982.66;5134653;28;20230;-78
2023/06/01 07:19:22;;;;;;;16.15;10.65;;;;;;;19.31;100.00;63992.63;5131542;28;20408;-79
2023/06/01 07:21:49;;;;;;;15.88;11.20;;;;;;;19.51;100.00;64013.50;5133503;28;20229;-80
2023/06/01 07:24:19;;;;;;;12.05;10.85;;;;;;;19.33;100.00;64001.94;5131519;28;20373;-80
2023/06/01 07:26:51;;;;;;;19.95;11.90;;;;;;;19.39;100.00;64000.97;5133207;28;20236;-80
2023/06/01 07:29:18;;;;;;;13.10;10.98;;;;;;;19.59;100.00;64026.47;5132836;28;20187;-79
2023/06/01 07:31:45;;;;;;;14.55;11.77;;;;;;;19.65;100.00;64032.22;5130806;28;20215;-78
2023/06/01 07:34:12;;;;;;;16.33;11.80;;;;;;;19.64;100.00;64031.19;5133004;28;20195;-80
2023/06/01 07:36:41;;;;;;;16.83;12.65;;;;;;;19.66;100.00;64028.09;5133701;27;20313;-79
2023/06/01 07:39:10;;;;;;;20.70;12.07;;;;;;;19.24;100.00;63982.72;5131803;28;20195;-79
2023/06/01 07:41:36;;;;;;;15.80;11.52;;;;;;;19.33;100.00;63997.31;5132036;28;20227;-80
2023/06/01 07:44:06;;;;;;;17.25;11.52;;;;;;;19.76;100.00;64041.63;5127848;28;20190;-78
2023/06/01 07:46:33;;;;;;;16.05;11.50;;;;;;;19.58;100.00;64024.91;5132444;28;20214;-79
2023/06/01 07:49:00;;;;;;;15.32;12.00;;;;;;;19.36;100.00;64002.50;5131140;28;20354;-80
2023/06/01 07:51:28;;;;;;;16.45;13.07;;;;;;;19.53;100.00;64017.63;5132784;28;20236;-79
2023/06/01 07:53:57;;;;;;;17.85;11.75;;;;;;;19.77;100.00;64040.09;5131752;28;20511;-78
2023/06/01 07:56:26;;;;;;;20.13;12.90;;;;;;;19.91;100.00;64059.88;5131612;28;20250;-80
2023/06/01 07:58:54;;;;;;;21.33;14.85;;;;;;;20.32;100.00;64102.13;5131851;28;20198;-78
2023/06/01 08:01:23;;;;;;;16.98;12.40;;;;;;;20.40;100.00;64108.41;5134227;28;20219;-78
2023/06/01 08:03:51;;;;;;;19.45;14.13;;;;;;;20.62;97.53;64131.38;5130112;28;20225;-79
2023/06/01 08:06:18;;;;;;;14.82;12.90;;;;;;;20.57;97.29;64123.56;5130722;28;20402;-79
2023/06/01 08:08:49;;;;;;;18.40;14.15;;;;;;;20.67;95.86;64136.59;5132947;28;20195;-77
2023/06/01 08:11:16;;;;;;;20.85;14.77;;;;;;;20.38;98.75;64108.41;5127792;28;20211;-78
2023/06/01 08:13:45;;;;;;;21.00;13.65;;;;;;;20.71;97.47;64142.84;5120193;28;20195;-78
2023/06/01 08:16:14;;;;;;;19.77;15.90;;;;;;;20.31;98.45;64096.44;5124387;28;20233;-79
2023/06/01 08:18:42;;;;;;;22.65;15.55;;;;;;;20.62;97.55;64133.47;5125561;28;20487;-81
2023/06/01 08:21:09;;;;;;;22.75;15.63;;;;;;;20.62;98.21;64131.38;5132433;28;20297;-79
2023/06/01 08:23:36;;;;;;;22.23;16.30;;;;;;;20.42;100.00;64109.97;5116605;28;20194;-79
2023/06/01 08:26:04;;;;;;;18.58;15.82;;;;;;;20.59;97.08;64130.84;5113431;28;20250;-80
2023/06/01 08:28:32;;;;;;;20.15;16.80;;;;;;;20.72;96.63;64146.47;5118644;28;20199;-78
2023/06/01 08:30:59;;;;;;;23.60;15.85;;;;;;;20.49;99.31;64120.41;5130067;28;20266;-78
2023/06/01 08:33:26;;;;;;;20.05;15.27;;;;;;;20.58;97.68;64127.22;5131602;28;20217;-79
2023/06/01 08:35:56;;;;;;;18.10;15.63;;;;;;;20.94;95.14;64163.75;5130996;28;20222;-79
2023/06/01 08:38:23;;;;;;;27.02;15.60;;;;;;;21.39;92.03;64211.28;5132250;28;20212;-78
2023/06/01 08:40:50;;;;;;;17.35;15.25;;;;;;;21.87;88.19;64263.50;5132812;28;20187;-80
2023/06/01 08:43:20;;;;;;;19.63;15.10;;;;;;;22.18;84.55;64290.72;5132480;28;20579;-79
2023/06/01 08:45:48;;;;;;;17.33;14.25;;;;;;;22.48;81.78;64329.34;5131131;28;20413;-79
2023/06/01 08:48:19;;;;;;;18.67;12.05;;;;;;;22.72;80.77;64351.88;5131617;28;20217;-79
2023/06/01 08:50:49;;;;;;;19.10;12.30;;;;;;;22.27;76.83;64302.19;5132562;28;20487;-77
2023/06/01 08:53:21;;;;;;;12.85;10.55;;;;;;;21.66;80.76;64242.06;5131493;28;20198;-79
2023/06/01 08:55:52;;;;;;;17.65;10.00;;;;;;;21.69;79.37;64247.81;5131969;28;20477;-79
2023/06/01 08:58:19;;;;;;;12.48;9.65;;;;;;;21.84;80.04;64257.78;5130851;28;20514;-79
2023/06/01 09:00:49;;;;;;;16.85;12.55;;;;;;;21.86;84.44;64261.94;5130458;28;20512;-79
2023/06/01 09:03:16;;;;;;;14.55;11.07;;;;;;;21.94;82.36;64267.72;5130293;28;20213;-77
2023/06/01 09:05:43;;;;;;;13.18;11.68;;;;;;;21.93;77.08;64266.69;5131597;28;20258;-79
2023/06/01 09:08:10;;;;;;;15.90;10.77;;;;;;;22.24;79.26;64304.78;5132789;28;20221;-79
2023/06/01 09:10:40;;;;;;;12.20;9.73;;;;;;;22.73;76.07;64350.31;5135298;28;20195;-80
2023/06/01 09:13:07;;;;;;;11.30;8.65;;;;;;;22.59;71.88;64338.78;5131667;28;20213;-79
2023/06/01 09:15:34;;;;;;;10.73;8.25;;;;;;;22.65;67.15;64344.53;5132807;28;20202;-78
2023/06/01 09:18:10;;;;;;;9.43;8.50;;;;;;;23.04;64.99;64387.41;5130480;28;20385;-80
2023/06/01 09:20:38;;;;;;;10.02;8.68;;;;;;;23.25;64.44;64401.56;5133764;27;20199;-79
2023/06/01 09:23:06;;;;;;;13.68;9.40;;;;;;;23.50;65.82;64432.94;5130565;28;20222;-78
2023/06/01 09:25:34;;;;;;;11.68;9.27;;;;;;;22.87;63.60;64368.06;5131579;27;20195;-79
2023/06/01 09:28:04;;;;;;;15.70;9.88;;;;;;;22.43;68.34;64329.31;5130553;28;20222;-79
2023/06/01 09:30:44;;;;;;;13.00;9.38;;;;;;;22.47;68.23;64326.22;5129687;28;20190;-79
2023/06/01 09:33:14;;;;;;;9.90;8.05;;;;;;;22.76;63.02;64358.66;5130677;27;20211;-77
2023/06/01 09:35:42;;;;;;;12.32;8.70;;;;;;;23.01;61.32;64382.19;5131059;27;20219;-77
2023/06/01 09:38:10;;;;;;;13.40;9.40;;;;;;;22.64;61.46;64341.41;5118345;28;20233;-80
2023/06/01 09:40:57;;;;;;;13.27;8.98;;;;;;;22.88;64.02;64363.41;5128790;28;20210;-80
2023/06/01 09:43:25;;;;;;;9.90;8.80;;;;;;;23.19;61.43;64397.91;5127355;28;21381;-77
2023/06/01 09:46:08;;;;;;;9.52;8.32;;;;;;;23.42;60.74;64427.16;5123525;28;20455;-79
2023/06/01 09:48:36;;;;;;;11.95;8.70;;;;;;;23.48;60.20;64431.38;5123314;28;20502;-78
2023/06/01 09:51:04;;;;;;;8.30;7.47;;;;;;;23.70;61.24;64454.41;5123014;28;20217;-80
2023/06/01 09:53:41;;;;;;;10.90;7.95;;;;;;;23.87;58.05;64471.66;5123168;28;20195;-79
2023/06/01 09:56:12;;;;;;;8.32;7.53;;;;;;;23.74;57.46;64460.66;5111213;28;20223;-78
2023/06/01 09:58:41;;;;;;;7.60;6.88;;;;;;;23.49;55.86;64429.28;5128130;28;20264;-80
2023/06/01 10:01:08;;;;;;;8.77;7.07;;;;;;;23.38;55.29;64418.31;5122748;28;20237;-80
2023/06/01 10:03:38;;;;;;;7.70;7.00;;;;;;;23.18;55.84;64402.03;5121586;28;20195;-79
2023/06/01 10:06:06;;;;;;;14.77;9.93;;;;;;;23.29;60.36;64411.50;5124012;28;20201;-80
2023/06/01 10:08:35;;;;;;;9.48;7.68;;;;;;;23.43;61.12;64423.56;5119716;27;20191;-79
2023/06/01 10:11:03;;;;;;;7.75;6.97;;;;;;;23.42;57.10;64425.09;5118398;28;20191;-80
2023/06/01 10:13:31;;;;;;;7.68;5.97;;;;;;;23.48;56.68;64430.84;5109872;28;20192;-79
2023/06/01 10:16:00;;;;;;;13.38;7.70;;;;;;;23.36;55.16;64426.63;5118190;28;20195;-80
2023/06/01 10:18:27;;;;;;;7.68;6.93;;;;;;;23.32;55.04;64412.03;5112440;28;20206;-80
2023/06/01 10:20:55;;;;;;;5.38;4.85;;;;;;;23.27;49.57;64408.84;5108168;28;20377;-80
2023/06/01 10:23:22;;;;;;;7.55;5.05;;;;;;;23.26;48.82;64405.75;5108045;28;20192;-81
2023/06/01 10:25:51;;;;;;;4.75;4.30;;;;;;;23.30;47.48;64414.59;5109000;28;20206;-81
2023/06/01 10:28:21;;;;;;;4.82;4.32;;;;;;;23.27;49.23;64411.47;5109326;28;20208;-79
2023/06/01 10:31:27;;;;;;;5.22;4.72;;;;;;;23.12;52.79;64391.09;5119450;28;20191;-79
2023/06/01 10:33:57;;;;;;;7.05;5.28;;;;;;;22.79;55.31;64361.78;5130513;28;20435;-79
2023/06/01 10:36:26;;;;;;;5.30;4.82;;;;;;;22.65;55.23;64341.94;5129535;28;20245;-79
2023/06/01 10:39:22;;;;;;;5.20;4.60;;;;;;;22.53;56.40;64329.38;5127970;28;20196;-79
2023/06/01 10:41:49;;;;;;;5.00;4.55;;;;;;;22.59;56.06;64333.59;5127138;28;20225;-78
2023/06/01 10:44:47;;;;;;;7.20;4.65;;;;;;;22.57;55.70;64336.19;5128489;28;20206;-82
2023/06/01 10:47:44;;;;;;;5.38;4.40;;;;;;;22.34;55.89;64306.94;5129827;28;20270;-79
2023/06/01 10:50:16;;;;;;;4.75;4.45;;;;;;;22.25;56.99;64305.81;5129059;28;20563;-79
2023/06/01 10:52:43;;;;;;;5.07;4.68;;;;;;;22.15;54.53;64292.25;5128921;28;20305;-79
2023/06/01 10:55:25;;;;;;;4.65;4.10;;;;;;;21.83;56.23;64256.75;5129010;28;20194;-80
2023/06/01 10:57:52;;;;;;;5.13;4.10;;;;;;;21.65;56.40;64241.03;5128156;28;20267;-79
2023/06/01 11:00:22;;;;;;;4.68;4.38;;;;;;;21.33;59.05;64202.41;5127970;28;20456;-79
2023/06/01 11:02:55;;;;;;;4.22;3.78;;;;;;;21.55;55.80;64235.75;5130656;28;20389;-80
2023/06/01 11:05:41;;;;;;;6.93;3.88;;;;;;;21.65;55.21;64235.84;5131539;28;20203;-80
2023/06/01 11:08:10;;;;;;;4.60;4.20;;;;;;;21.31;57.78;64202.41;5128433;28;20218;-79
2023/06/01 11:10:58;;;;;;;4.57;4.18;;;;;;;21.21;59.36;64189.88;5128623;28;20195;-80
2023/06/01 11:13:27;;;;;;;5.00;4.50;;;;;;;21.07;63.44;64177.84;5129450;28;20233;-80
2023/06/01 11:16:30;;;;;;;3.83;3.50;;;;;;;20.61;67.64;64130.34;5127762;28;20471;-78
2023/06/01 11:19:00;;;;;;;4.90;4.35;;;;;;;20.18;71.06;64087.53;5129669;28;20202;-80
2023/06/01 11:21:31;;;;;;;4.60;4.20;;;;;;;19.96;76.49;64067.13;5130698;28;20215;-80
2023/06/01 11:23:59;;;;;;;7.10;3.63;;;;;;;19.35;82.79;63996.81;5128696;28;20194;-78
2023/06/01 11:26:31;;;;;;;5.35;4.38;;;;;;;18.77;93.91;63946.66;5127252;28;20375;-78
2023/06/01 11:29:06;;;;;;;5.13;4.60;;;;;;;17.94;100.00;63852.41;5127799;28;20194;-78